Time;durP1;ratioP1;P1;durP2;ratioP2;P2;SDS_P1;SDS_P2;PMS_P1;PMS_P2;Temp;Humidity;BMP_temperature;BMP_pressure;BME280_temperature;BME280_humidity;BME280_pressure;Samples;Min_cycle;Max_cycle;Signal;HPM_P1;HPM_P2
2022/06/09 00:01:34;;;;;;;6.07;5.57;;;;;;;17.94;75.19;94341.44;4994414;28;20257;-71
2022/06/09 00:04:13;;;;;;;6.50;6.00;;;;;;;18.06;74.28;94342.38;4997641;28;20956;-71
2022/06/09 00:07:00;;;;;;;6.45;5.95;;;;;;;18.03;74.38;94338.28;4999249;28;20226;-71
2022/06/09 00:09:31;;;;;;;6.53;5.90;;;;;;;17.98;74.38;94331.97;4994919;28;20231;-72
2022/06/09 00:11:57;;;;;;;7.13;6.53;;;;;;;17.91;73.94;94333.84;4997002;28;20234;-71
2022/06/09 00:14:23;;;;;;;7.07;6.43;;;;;;;17.92;73.55;94338.16;5001907;28;20277;-72
2022/06/09 00:16:48;;;;;;;7.47;6.78;;;;;;;17.60;74.68;94338.91;4998647;28;20226;-71
2022/06/09 00:19:16;;;;;;;7.45;6.75;;;;;;;17.73;74.62;94337.22;4991194;28;20298;-72
2022/06/09 00:21:41;;;;;;;7.80;7.10;;;;;;;17.60;76.17;94338.09;4996776;28;20298;-71
2022/06/09 00:24:07;;;;;;;6.93;6.28;;;;;;;17.62;75.99;94338.72;4993732;28;20242;-71
2022/06/09 00:26:32;;;;;;;7.65;6.95;;;;;;;17.60;76.20;94340.75;4996998;28;20465;-71
2022/06/09 00:28:58;;;;;;;7.57;6.88;;;;;;;17.57;75.46;94325.22;4990075;28;20227;-71
2022/06/09 00:31:24;;;;;;;8.13;7.43;;;;;;;17.66;75.39;94331.91;5001594;28;20213;-73
2022/06/09 00:33:50;;;;;;;7.50;6.75;;;;;;;17.75;75.12;94332.47;4999557;28;20227;-71
2022/06/09 00:36:16;;;;;;;7.53;6.93;;;;;;;17.78;75.09;94329.44;4991894;28;20241;-71
2022/06/09 00:38:46;;;;;;;7.30;6.72;;;;;;;17.73;75.09;94324.72;5000225;28;20228;-70
2022/06/09 00:41:12;;;;;;;8.02;7.32;;;;;;;17.79;75.29;94329.22;5000131;28;20272;-70
2022/06/09 00:43:40;;;;;;;8.43;7.63;;;;;;;17.78;75.16;94324.09;4995742;28;20208;-71
2022/06/09 00:46:17;;;;;;;8.48;7.80;;;;;;;17.82;75.28;94322.66;4990648;28;20250;-70
2022/06/09 00:48:54;;;;;;;9.43;8.63;;;;;;;17.91;74.86;94320.56;4995989;28;20270;-70
2022/06/09 00:51:37;;;;;;;9.57;8.77;;;;;;;17.72;75.41;94314.31;4990656;28;20227;-65
2022/06/09 00:54:18;;;;;;;9.45;8.48;;;;;;;17.82;75.30;94306.72;4995358;28;20253;-66
2022/06/09 00:56:57;;;;;;;10.20;8.75;;;;;;;17.72;75.63;94316.97;4994640;28;20261;-65
2022/06/09 00:59:26;;;;;;;9.85;8.90;;;;;;;17.79;75.21;94317.78;5007713;28;20261;-65
2022/06/09 01:01:53;;;;;;;9.77;8.88;;;;;;;17.77;75.61;94312.63;5004410;28;20238;-64
2022/06/09 01:04:21;;;;;;;10.27;9.48;;;;;;;17.82;75.23;94317.34;4997026;28;20210;-67
2022/06/09 01:06:50;;;;;;;10.20;9.25;;;;;;;17.89;75.09;94317.31;4998232;28;20235;-66
2022/06/09 01:09:20;;;;;;;11.38;10.32;;;;;;;17.95;74.23;94321.78;4992614;28;20219;-63
2022/06/09 01:11:51;;;;;;;10.65;9.75;;;;;;;17.90;74.92;94313.63;4997972;28;20234;-71
2022/06/09 01:14:20;;;;;;;10.40;9.50;;;;;;;17.91;74.99;94315.25;4995708;28;20285;-69
2022/06/09 01:17:41;;;;;;;11.63;10.63;;;;;;;17.89;75.50;94312.00;4999526;28;20242;-67
2022/06/09 01:20:15;;;;;;;11.63;10.55;;;;;;;17.90;75.40;94314.44;4930533;28;20232;-64
2022/06/09 01:23:08;;;;;;;10.93;9.82;;;;;;;18.00;75.16;94317.44;4946573;28;20219;-64
2022/06/09 01:25:48;;;;;;;11.05;10.15;;;;;;;18.01;74.67;94307.63;4947960;28;20242;-65
2022/06/09 01:28:25;;;;;;;10.27;9.38;;;;;;;18.10;73.83;94302.88;4944872;28;20207;-70
2022/06/09 01:30:59;;;;;;;10.77;9.85;;;;;;;18.04;73.75;94315.16;4946944;28;20228;-68
2022/06/09 01:33:45;;;;;;;11.15;10.25;;;;;;;18.10;73.10;94310.84;4949926;28;20232;-63
2022/06/09 01:36:22;;;;;;;10.55;9.55;;;;;;;18.07;73.22;94296.13;4945054;28;20228;-71
2022/06/09 01:38:52;;;;;;;10.27;9.27;;;;;;;18.05;72.93;94287.53;4961940;28;20263;-67
2022/06/09 01:41:19;;;;;;;10.93;10.02;;;;;;;18.09;73.17;94299.38;4946574;28;20228;-70
2022/06/09 01:43:47;;;;;;;12.68;11.38;;;;;;;17.99;72.88;94297.22;4946755;28;20242;-64
2022/06/09 01:46:21;;;;;;;11.20;10.13;;;;;;;17.94;73.26;94307.66;4949268;28;20211;-64
2022/06/09 01:48:51;;;;;;;12.30;11.20;;;;;;;17.88;73.32;94295.22;4947572;28;20231;-68
2022/06/09 01:51:20;;;;;;;11.77;10.77;;;;;;;17.92;73.24;94295.63;4951616;28;20319;-63
2022/06/09 01:54:00;;;;;;;13.20;11.85;;;;;;;17.92;73.81;94291.09;4949991;28;20224;-69
2022/06/09 01:56:31;;;;;;;12.40;11.20;;;;;;;17.97;73.48;94290.47;4986458;28;20784;-70
2022/06/09 01:59:09;;;;;;;12.95;11.75;;;;;;;17.92;73.81;94301.75;4998735;28;20226;-67
2022/06/09 02:01:52;;;;;;;11.88;10.88;;;;;;;18.00;73.12;94308.66;4996029;28;20207;-66
2022/06/09 02:04:34;;;;;;;13.32;12.13;;;;;;;17.82;73.58;94301.38;5002755;28;20207;-70
2022/06/09 02:07:04;;;;;;;13.20;12.00;;;;;;;17.68;74.05;94302.47;5001976;28;20227;-70
2022/06/09 02:09:32;;;;;;;13.93;12.50;;;;;;;17.70;73.96;94298.56;4997888;28;20305;-70
2022/06/09 02:12:03;;;;;;;12.85;11.75;;;;;;;17.82;74.07;94298.72;4995333;28;20223;-65
2022/06/09 02:14:30;;;;;;;12.95;11.88;;;;;;;17.62;74.65;94293.50;4995811;28;20347;-72
2022/06/09 02:16:57;;;;;;;13.48;12.20;;;;;;;17.38;75.49;94300.38;5001458;28;20234;-68
2022/06/09 02:19:23;;;;;;;13.48;12.38;;;;;;;17.47;75.54;94296.44;5001396;28;20214;-66
2022/06/09 02:21:49;;;;;;;13.23;11.93;;;;;;;17.67;73.94;94300.81;5001886;28;20341;-64
2022/06/09 02:24:15;;;;;;;12.82;11.75;;;;;;;17.52;74.97;94301.13;5004190;28;20286;-70
2022/06/09 02:26:43;;;;;;;13.65;12.35;;;;;;;17.54;75.33;94305.19;5003891;28;20234;-65
2022/06/09 02:29:09;;;;;;;13.05;11.88;;;;;;;17.61;75.53;94299.84;5001655;28;20227;-66
2022/06/09 02:31:35;;;;;;;13.68;12.40;;;;;;;17.63;75.25;94303.09;4994576;28;20261;-66
2022/06/09 02:34:01;;;;;;;13.85;12.55;;;;;;;17.37;75.62;94304.88;4995994;28;20206;-64
2022/06/09 02:36:27;;;;;;;13.90;12.02;;;;;;;17.37;75.87;94322.63;4998862;28;20277;-66
2022/06/09 02:38:52;;;;;;;12.95;11.68;;;;;;;17.48;75.33;94311.38;4991384;28;20231;-70
2022/06/09 02:41:18;;;;;;;13.63;12.38;;;;;;;17.39;75.21;94317.94;5001639;28;20258;-66
2022/06/09 02:43:44;;;;;;;13.73;12.45;;;;;;;17.28;76.15;94324.72;5001610;28;20200;-68
2022/06/09 02:46:09;;;;;;;14.73;13.32;;;;;;;17.26;76.69;94331.28;5001695;28;20253;-71
2022/06/09 02:48:35;;;;;;;14.43;13.10;;;;;;;17.00;77.75;94327.69;5000790;28;20230;-70
2022/06/09 02:51:34;;;;;;;14.30;12.82;;;;;;;17.28;77.14;94330.03;5001450;28;20234;-67
2022/06/09 02:54:03;;;;;;;13.25;12.05;;;;;;;17.31;77.14;94318.97;4972609;28;20238;-66
2022/06/09 02:56:30;;;;;;;11.77;10.68;;;;;;;17.03;78.01;94316.63;4980741;28;20318;-67
2022/06/09 02:58:56;;;;;;;11.23;10.20;;;;;;;17.11;77.00;94316.41;4958268;28;20223;-71
2022/06/09 03:01:24;;;;;;;12.02;11.00;;;;;;;16.97;77.52;94314.78;4967566;28;20204;-70
2022/06/09 03:03:49;;;;;;;12.30;11.10;;;;;;;16.63;79.11;94319.34;4967396;28;20239;-70
2022/06/09 03:06:15;;;;;;;12.85;11.65;;;;;;;16.89;78.38;94317.69;4961642;28;20228;-64
2022/06/09 03:08:40;;;;;;;12.13;11.02;;;;;;;16.64;79.37;94318.31;4976843;28;20231;-67
2022/06/09 03:11:06;;;;;;;13.52;12.05;;;;;;;16.78;79.18;94313.81;4959483;28;20223;-64
2022/06/09 03:13:32;;;;;;;11.88;10.80;;;;;;;17.06;77.81;94313.56;4958303;28;20235;-70
2022/06/09 03:15:58;;;;;;;11.73;10.70;;;;;;;17.26;76.23;94323.31;4960909;28;20219;-66
2022/06/09 03:18:23;;;;;;;11.27;10.35;;;;;;;17.27;76.43;94324.91;4967027;28;20246;-71
2022/06/09 03:20:49;;;;;;;12.27;10.98;;;;;;;17.31;76.36;94326.97;4975860;28;20228;-65
2022/06/09 03:23:15;;;;;;;11.85;10.73;;;;;;;17.24;76.62;94325.34;4979559;28;20232;-63
2022/06/09 03:25:43;;;;;;;12.55;11.35;;;;;;;17.27;76.78;94323.09;4979631;28;20219;-64
2022/06/09 03:28:09;;;;;;;13.05;11.73;;;;;;;17.00;77.25;94329.50;4948796;28;20226;-70
2022/06/09 03:30:35;;;;;;;13.32;12.02;;;;;;;17.00;77.53;94321.53;4990881;28;20338;-65
2022/06/09 03:33:01;;;;;;;12.05;10.98;;;;;;;16.90;78.10;94319.31;5000510;28;20286;-68
2022/06/09 03:35:27;;;;;;;12.70;11.45;;;;;;;17.13;77.40;94319.69;5000570;28;20238;-70
2022/06/09 03:37:53;;;;;;;12.77;11.68;;;;;;;17.36;76.63;94318.34;4996083;28;20319;-69
2022/06/09 03:40:20;;;;;;;13.07;11.90;;;;;;;17.02;77.47;94316.84;4998191;28;20211;-64
2022/06/09 03:42:46;;;;;;;14.07;12.70;;;;;;;17.29;76.47;94323.69;4995535;28;20301;-67
2022/06/09 03:45:12;;;;;;;15.00;13.73;;;;;;;16.97;77.62;94320.09;4996517;28;20227;-65
2022/06/09 03:47:38;;;;;;;13.93;12.73;;;;;;;17.29;76.84;94322.88;4994331;28;20227;-71
2022/06/09 03:50:06;;;;;;;17.52;15.93;;;;;;;17.47;76.49;94315.03;4993016;28;20254;-65
2022/06/09 03:52:32;;;;;;;18.40;16.70;;;;;;;17.48;76.73;94315.84;4998077;28;20206;-63
2022/06/09 03:54:58;;;;;;;20.35;18.35;;;;;;;17.55;76.67;94316.66;5000884;28;20194;-71
2022/06/09 03:57:24;;;;;;;20.63;18.63;;;;;;;17.57;76.13;94311.94;4993931;28;20237;-63
2022/06/09 03:59:49;;;;;;;20.30;18.20;;;;;;;17.67;75.78;94309.63;4991880;28;20230;-65
2022/06/09 04:02:15;;;;;;;19.70;17.80;;;;;;;17.47;76.09;94301.75;4992200;28;20373;-64
2022/06/09 04:04:41;;;;;;;19.15;17.40;;;;;;;17.51;75.56;94308.28;5002583;28;20207;-64
2022/06/09 04:07:06;;;;;;;20.17;18.08;;;;;;;17.61;75.71;94315.78;4998389;28;20209;-69
2022/06/09 04:09:32;;;;;;;17.23;15.63;;;;;;;17.75;75.29;94311.22;5001315;28;20223;-65
2022/06/09 04:11:57;;;;;;;17.08;15.55;;;;;;;17.63;74.99;94311.06;5000308;28;20285;-65
2022/06/09 04:14:23;;;;;;;21.00;19.00;;;;;;;17.78;74.76;94306.31;4995148;28;20227;-67
2022/06/09 04:16:48;;;;;;;20.98;18.95;;;;;;;17.84;75.21;94304.66;4994818;28;20333;-67
2022/06/09 04:19:17;;;;;;;20.75;18.65;;;;;;;17.98;74.28;94308.84;5000641;28;20214;-65
2022/06/09 04:21:43;;;;;;;21.58;19.48;;;;;;;18.23;73.55;94313.38;4993766;28;20219;-65
2022/06/09 04:24:09;;;;;;;22.20;20.05;;;;;;;18.38;72.84;94311.22;4997424;28;20223;-70
2022/06/09 04:26:38;;;;;;;20.45;18.58;;;;;;;18.62;72.11;94311.44;4992980;28;20284;-65
2022/06/09 04:29:06;;;;;;;20.60;18.75;;;;;;;18.66;71.59;94317.97;5001052;28;20218;-67
2022/06/09 04:31:33;;;;;;;20.95;18.95;;;;;;;18.65;71.29;94311.00;4996016;28;20213;-71
2022/06/09 04:33:58;;;;;;;23.05;20.92;;;;;;;18.62;71.48;94316.78;4996483;28;21043;-70
2022/06/09 04:36:24;;;;;;;20.75;18.80;;;;;;;18.52;70.82;94310.09;4996559;28;20289;-63
2022/06/09 04:38:49;;;;;;;21.40;19.50;;;;;;;18.48;71.23;94305.44;4998181;28;20223;-63
2022/06/09 04:41:16;;;;;;;22.42;20.42;;;;;;;18.68;70.49;94313.22;4991073;28;20227;-67
2022/06/09 04:43:44;;;;;;;20.48;18.58;;;;;;;18.79;70.12;94307.25;5000458;28;20256;-66
2022/06/09 04:46:12;;;;;;;20.05;18.02;;;;;;;18.62;70.78;94293.63;4998021;28;20206;-69
2022/06/09 04:48:38;;;;;;;18.38;16.67;;;;;;;18.60;71.02;94308.19;4996300;28;20246;-68
2022/06/09 04:51:08;;;;;;;18.73;16.95;;;;;;;18.29;71.62;94307.22;4999023;28;20219;-62
2022/06/09 04:53:34;;;;;;;18.67;16.85;;;;;;;18.05;73.74;94306.16;4998703;28;20253;-63
2022/06/09 04:56:00;;;;;;;18.88;17.02;;;;;;;18.21;73.20;94302.16;4992221;28;20238;-68
2022/06/09 04:58:26;;;;;;;19.35;17.45;;;;;;;18.41;72.07;94307.31;4992293;28;20222;-68
2022/06/09 05:00:52;;;;;;;17.50;15.93;;;;;;;18.47;71.03;94311.75;4992629;28;20219;-68
2022/06/09 05:03:19;;;;;;;17.50;15.95;;;;;;;18.70;69.66;94317.31;4992088;28;20281;-63
2022/06/09 05:05:46;;;;;;;16.73;15.32;;;;;;;18.69;68.24;94310.34;4994365;28;20235;-65
2022/06/09 05:08:12;;;;;;;18.25;16.50;;;;;;;18.75;68.20;94316.69;4990514;28;20230;-68
2022/06/09 05:10:39;;;;;;;16.88;15.48;;;;;;;18.82;68.05;94304.13;4979077;28;20214;-63
2022/06/09 05:13:06;;;;;;;16.85;15.35;;;;;;;18.94;68.32;94310.34;4989651;28;20725;-68
2022/06/09 05:15:35;;;;;;;19.48;17.45;;;;;;;18.95;67.91;94309.31;5001504;28;20320;-63
2022/06/09 05:18:01;;;;;;;18.55;16.95;;;;;;;18.61;68.82;94309.81;4999402;28;20219;-67
2022/06/09 05:20:27;;;;;;;18.30;16.67;;;;;;;18.78;68.71;94305.59;5001906;28;20222;-65
2022/06/09 05:22:53;;;;;;;17.65;16.15;;;;;;;18.76;68.63;94306.84;4999614;28;20250;-66
2022/06/09 05:25:18;;;;;;;16.52;14.90;;;;;;;18.85;68.63;94295.69;4999913;28;20298;-63
2022/06/09 05:27:45;;;;;;;15.43;13.93;;;;;;;18.85;68.36;94298.34;4996882;28;20215;-64
2022/06/09 05:30:19;;;;;;;15.48;14.05;;;;;;;18.93;68.48;94302.59;5011456;28;20305;-65
2022/06/09 05:32:45;;;;;;;15.93;14.45;;;;;;;18.95;67.75;94308.47;5007332;28;20687;-64
2022/06/09 05:35:11;;;;;;;16.40;14.70;;;;;;;19.07;67.57;94297.94;4998567;28;20309;-64
2022/06/09 05:45:49;;;;;;;18.60;16.90;;;;;;;18.63;69.90;94313.91;4995191;28;20299;-68
2022/06/09 05:48:14;;;;;;;20.08;17.75;;;;;;;18.78;69.11;94315.44;5001989;28;20223;-66
2022/06/09 05:50:40;;;;;;;20.00;17.83;;;;;;;18.81;68.83;94310.47;5000675;28;20274;-64
2022/06/09 05:53:06;;;;;;;19.27;17.58;;;;;;;18.80;69.42;94313.38;5004502;28;20254;-62
2022/06/09 05:55:32;;;;;;;19.90;17.80;;;;;;;18.64;69.91;94309.38;5003679;28;20218;-66
2022/06/09 05:57:57;;;;;;;19.33;17.52;;;;;;;19.00;68.63;94291.84;4992308;28;20691;-68
2022/06/09 06:00:23;;;;;;;19.60;16.63;;;;;;;19.13;68.62;94294.38;5015045;28;20309;-64
2022/06/09 06:02:49;;;;;;;17.85;16.23;;;;;;;19.27;68.58;94303.84;4996141;28;20222;-69
2022/06/09 06:07:58;;;;;;;17.35;15.55;;;;;;;19.04;67.57;94293.03;4990471;28;20238;-68
2022/06/09 06:10:23;;;;;;;15.88;14.32;;;;;;;19.15;65.80;94300.28;4998265;28;20203;-64
2022/06/09 06:12:49;;;;;;;17.90;16.13;;;;;;;19.01;67.16;94304.16;5001752;28;20281;-65
2022/06/09 06:15:15;;;;;;;17.95;16.45;;;;;;;19.25;66.15;94297.13;5003165;28;20305;-67
2022/06/09 06:17:40;;;;;;;18.90;16.25;;;;;;;19.41;66.05;94293.03;4997525;28;20230;-67
2022/06/09 06:20:06;;;;;;;16.23;14.63;;;;;;;19.55;65.75;94289.97;4998819;28;20235;-65
2022/06/09 06:22:31;;;;;;;15.07;13.73;;;;;;;19.63;65.92;94285.38;4990295;28;20222;-66
2022/06/09 06:24:59;;;;;;;16.75;13.95;;;;;;;19.82;64.12;94290.44;4998540;28;20522;-64
2022/06/09 06:27:25;;;;;;;16.48;14.50;;;;;;;19.51;65.64;94279.97;4996357;28;20333;-63
2022/06/09 06:29:51;;;;;;;15.15;13.85;;;;;;;19.35;66.59;94284.06;5000915;28;20227;-64
2022/06/09 06:32:16;;;;;;;15.40;14.02;;;;;;;19.65;63.00;94284.09;4998456;28;20227;-70
2022/06/09 06:34:42;;;;;;;17.05;15.50;;;;;;;19.77;63.63;94289.50;4996891;28;20289;-65
2022/06/09 06:37:08;;;;;;;16.00;14.32;;;;;;;19.78;62.93;94277.78;4990656;28;20223;-64
2022/06/09 06:39:33;;;;;;;16.02;14.63;;;;;;;19.77;62.84;94279.66;4994487;28;20292;-64
2022/06/09 06:41:59;;;;;;;15.80;14.27;;;;;;;19.68;63.43;94282.88;4993634;28;20227;-65
2022/06/09 06:44:24;;;;;;;15.57;14.00;;;;;;;19.68;63.82;94282.88;4985055;28;20274;-63
2022/06/09 06:46:50;;;;;;;16.17;14.82;;;;;;;18.99;65.23;94277.72;4994879;28;20219;-67
2022/06/09 06:49:15;;;;;;;17.05;15.50;;;;;;;18.81;66.55;94278.50;4996786;28;20195;-66
2022/06/09 06:51:41;;;;;;;16.75;15.13;;;;;;;18.97;65.63;94270.97;4993966;28;20603;-68
2022/06/09 06:54:06;;;;;;;16.95;15.50;;;;;;;19.06;65.79;94274.97;4993371;28;20223;-64
2022/06/09 06:56:34;;;;;;;16.98;15.38;;;;;;;19.05;65.84;94274.16;4989528;28;20227;-67
2022/06/09 06:59:00;;;;;;;16.77;15.35;;;;;;;19.26;64.96;94280.09;4987417;28;20235;-62
2022/06/09 07:01:27;;;;;;;16.58;14.98;;;;;;;19.33;65.34;94281.63;4993132;28;20216;-63
2022/06/09 07:03:54;;;;;;;15.77;14.25;;;;;;;19.46;62.99;94279.81;4991887;28;20281;-64
2022/06/09 07:06:19;;;;;;;15.68;13.65;;;;;;;19.50;61.60;94281.81;4995825;28;20630;-64
2022/06/09 07:08:45;;;;;;;14.95;13.65;;;;;;;19.67;61.04;94281.22;4998040;28;20227;-64
2022/06/09 07:11:11;;;;;;;15.65;14.25;;;;;;;19.92;60.38;94276.56;4988358;28;20315;-62
2022/06/09 07:13:37;;;;;;;14.75;13.52;;;;;;;19.97;59.82;94276.72;4991565;28;20298;-69
2022/06/09 07:16:06;;;;;;;13.98;12.73;;;;;;;20.08;59.27;94271.63;5001694;28;20238;-63
2022/06/09 07:18:32;;;;;;;13.65;12.65;;;;;;;20.28;58.71;94272.94;4979344;28;20285;-65
2022/06/09 07:20:59;;;;;;;14.68;12.93;;;;;;;20.28;58.39;94269.44;4994527;28;20219;-64
2022/06/09 07:23:26;;;;;;;14.02;12.80;;;;;;;20.45;58.15;94272.28;4999484;28;20215;-63
2022/06/09 07:25:52;;;;;;;13.32;11.88;;;;;;;20.59;58.95;94271.03;4997218;28;20223;-63
2022/06/09 07:28:18;;;;;;;14.05;12.82;;;;;;;20.66;59.49;94276.25;4996147;28;20290;-65
2022/06/09 07:30:44;;;;;;;14.30;13.00;;;;;;;20.76;59.37;94271.13;4991426;28;20299;-62
2022/06/09 07:33:10;;;;;;;14.68;13.48;;;;;;;20.90;59.39;94269.03;4992418;28;20259;-68
2022/06/09 07:35:37;;;;;;;13.55;12.35;;;;;;;20.78;59.84;94270.91;4990883;28;20227;-67
2022/06/09 07:38:09;;;;;;;14.52;13.27;;;;;;;21.02;58.52;94267.16;5001317;28;20215;-62
2022/06/09 07:40:36;;;;;;;14.93;13.48;;;;;;;20.70;58.20;94270.22;4996024;28;20203;-61
2022/06/09 07:43:03;;;;;;;14.32;13.13;;;;;;;20.97;57.08;94264.38;4999695;28;20202;-61
2022/06/09 07:45:29;;;;;;;14.05;12.80;;;;;;;20.91;57.28;94259.97;4997945;28;20227;-65
2022/06/09 07:47:54;;;;;;;12.82;11.82;;;;;;;21.05;56.66;94250.66;4997272;28;20226;-65
2022/06/09 07:50:20;;;;;;;13.50;12.27;;;;;;;21.20;56.48;94252.00;5002167;28;20227;-63
2022/06/09 07:52:46;;;;;;;14.63;12.23;;;;;;;21.10;57.05;94257.97;4996105;28;20230;-61
2022/06/09 07:55:14;;;;;;;13.20;11.68;;;;;;;21.30;57.51;94241.53;5000398;28;20207;-65
2022/06/09 07:57:39;;;;;;;13.23;11.85;;;;;;;21.50;56.06;94239.28;4999247;28;20350;-65
2022/06/09 08:00:07;;;;;;;12.55;11.40;;;;;;;21.23;57.52;94241.69;5001675;28;20223;-69
2022/06/09 08:02:33;;;;;;;14.80;13.30;;;;;;;21.35;56.34;94238.97;4994405;28;20234;-63
2022/06/09 08:04:58;;;;;;;13.85;12.30;;;;;;;21.42;57.33;94234.31;5003426;28;20314;-66
2022/06/09 08:07:23;;;;;;;14.10;12.65;;;;;;;21.60;56.48;94233.34;4997702;28;20211;-66
2022/06/09 08:09:49;;;;;;;13.15;11.82;;;;;;;21.50;56.56;94225.91;4994116;28;20221;-63
2022/06/09 08:12:14;;;;;;;13.20;11.85;;;;;;;21.68;56.49;94226.75;5000406;28;20235;-65
2022/06/09 08:14:42;;;;;;;13.52;12.30;;;;;;;21.87;56.15;94228.19;4995003;28;20230;-67
2022/06/09 08:17:09;;;;;;;13.27;12.07;;;;;;;21.92;55.20;94228.28;5004059;28;20239;-69
2022/06/09 08:19:35;;;;;;;14.13;12.80;;;;;;;22.00;54.83;94230.56;5000609;28;20223;-61
2022/06/09 08:22:00;;;;;;;13.93;12.50;;;;;;;21.85;55.17;94226.81;4999585;28;20218;-68
2022/06/09 08:24:26;;;;;;;13.35;12.25;;;;;;;21.80;55.38;94219.50;4993757;28;20234;-69
2022/06/09 08:26:51;;;;;;;13.60;12.20;;;;;;;21.83;55.51;94221.69;4992763;28;20231;-65
2022/06/09 08:29:17;;;;;;;12.68;11.57;;;;;;;22.00;54.35;94224.41;4992879;28;20227;-67
2022/06/09 08:31:43;;;;;;;12.90;11.70;;;;;;;22.22;53.45;94219.97;5000956;28;20211;-66
2022/06/09 08:34:11;;;;;;;12.85;11.52;;;;;;;22.21;53.11;94214.84;5001991;28;20222;-65
2022/06/09 08:36:37;;;;;;;12.45;11.35;;;;;;;22.19;53.39;94211.63;4997636;28;20317;-67
2022/06/09 08:39:03;;;;;;;12.48;11.13;;;;;;;22.19;53.36;94208.94;4998764;28;20317;-64
2022/06/09 08:41:53;;;;;;;12.55;11.35;;;;;;;22.25;54.53;94218.69;4998989;28;20274;-66
2022/06/09 08:44:32;;;;;;;12.70;11.43;;;;;;;22.24;53.79;94211.72;5008472;28;20226;-62
2022/06/09 08:47:00;;;;;;;12.20;11.00;;;;;;;22.34;54.85;94206.50;4995639;28;20300;-64
2022/06/09 08:49:44;;;;;;;11.45;10.30;;;;;;;22.20;56.33;94208.69;4995508;28;20199;-66
2022/06/09 08:52:17;;;;;;;11.27;10.23;;;;;;;;;;4993513;28;20309;-66
2022/06/09 08:54:44;;;;;;;10.95;9.85;;;;;;;22.33;53.63;94202.19;4992757;28;20309;-68
2022/06/09 08:57:17;;;;;;;11.07;10.07;;;;;;;21.87;53.76;94200.63;4997265;28;20215;-63
2022/06/09 08:59:49;;;;;;;11.85;10.65;;;;;;;21.95;54.40;94198.34;4992342;28;20237;-65
2022/06/09 09:02:27;;;;;;;10.80;9.68;;;;;;;21.98;53.75;94194.38;4986079;28;20231;-64
2022/06/09 09:05:13;;;;;;;13.13;9.57;;;;;;;22.02;54.96;94191.00;4998723;28;20234;-62
2022/06/09 09:07:48;;;;;;;11.65;9.55;;;;;;;21.99;54.22;94190.66;4997969;28;20214;-65
2022/06/09 09:10:42;;;;;;;11.13;9.88;;;;;;;22.05;53.87;94183.50;4996431;28;20276;-64
2022/06/09 09:13:35;;;;;;;10.43;9.43;;;;;;;22.02;54.83;94182.97;5000464;28;20241;-65
2022/06/09 09:16:20;;;;;;;10.70;9.40;;;;;;;22.13;55.65;94175.91;4997624;28;20251;-62
2022/06/09 09:18:48;;;;;;;14.57;9.70;;;;;;;21.90;54.63;94171.50;4996759;28;20249;-64
2022/06/09 09:21:25;;;;;;;11.32;9.88;;;;;;;21.93;54.81;94173.69;5002345;28;20223;-64
2022/06/09 09:24:08;;;;;;;11.10;9.98;;;;;;;21.82;55.24;94179.94;5002775;28;20227;-66
2022/06/09 09:26:40;;;;;;;10.88;9.77;;;;;;;21.92;53.59;94173.91;5002675;28;20280;-64
2022/06/09 09:29:16;;;;;;;10.00;9.20;;;;;;;22.19;53.13;94168.78;5002161;28;20376;-65
2022/06/09 09:31:58;;;;;;;12.23;9.18;;;;;;;22.52;51.80;94161.75;5000659;28;20229;-66
2022/06/09 09:34:32;;;;;;;9.52;8.70;;;;;;;22.71;51.66;94155.03;4996204;28;20207;-66
2022/06/09 09:37:01;;;;;;;9.98;8.98;;;;;;;22.90;52.05;94153.69;4997303;28;20215;-66
2022/06/09 09:39:40;;;;;;;13.25;10.10;;;;;;;23.24;51.09;94153.56;5000598;28;20225;-64
2022/06/09 09:42:15;;;;;;;9.23;8.32;;;;;;;23.44;49.10;94147.63;4999006;28;20254;-65
2022/06/09 09:44:43;;;;;;;9.40;8.50;;;;;;;23.47;49.60;94144.44;5000900;28;20219;-67
2022/06/09 09:47:24;;;;;;;9.63;8.63;;;;;;;23.61;49.10;94138.66;5003272;28;20223;-67
2022/06/09 09:49:52;;;;;;;8.93;7.88;;;;;;;23.43;48.09;94135.25;4996637;28;20344;-64
2022/06/09 09:52:53;;;;;;;10.50;8.23;;;;;;;23.36;48.57;94133.84;4998289;28;20202;-63
2022/06/09 09:55:27;;;;;;;8.60;7.78;;;;;;;23.66;48.16;94134.16;4995926;28;20237;-66
2022/06/09 09:58:08;;;;;;;9.00;8.20;;;;;;;23.77;46.52;94135.09;4994332;28;20312;-66
2022/06/09 10:00:34;;;;;;;10.57;8.43;;;;;;;23.76;46.63;94134.28;4997658;28;20219;-62
2022/06/09 10:08:45;;;;;;;8.25;7.40;;;;;;;24.29;48.14;94123.66;5000458;28;20253;-64
2022/06/09 10:14:29;;;;;;;7.70;6.70;;;;;;;24.71;45.70;94116.66;5000195;28;20221;-65
2022/06/09 10:16:56;;;;;;;7.53;6.75;;;;;;;24.96;42.66;94106.00;4997382;28;20231;-67
2022/06/09 10:19:24;;;;;;;8.43;7.28;;;;;;;25.11;41.91;94107.16;4995776;28;20335;-64
2022/06/09 10:21:55;;;;;;;9.40;7.13;;;;;;;25.11;42.77;94107.16;4978899;28;20302;-66
2022/06/09 10:24:26;;;;;;;6.82;6.10;;;;;;;25.16;43.41;94108.00;4988640;28;20235;-66
2022/06/09 10:26:56;;;;;;;8.18;6.00;;;;;;;25.29;41.94;94101.31;5000152;28;20296;-67
2022/06/09 10:29:45;;;;;;;6.50;5.68;;;;;;;25.71;40.71;94101.09;4991432;28;20259;-71
2022/06/09 10:32:16;;;;;;;6.47;5.47;;;;;;;25.81;39.16;94091.41;5001826;28;20286;-66
2022/06/09 10:35:13;;;;;;;9.25;6.13;;;;;;;25.86;40.17;94099.53;4998439;28;20203;-72
2022/06/09 10:38:17;;;;;;;6.57;5.97;;;;;;;26.23;39.27;94088.44;4993806;28;20207;-67
2022/06/09 10:40:48;;;;;;;6.53;5.93;;;;;;;26.38;38.42;94080.34;4965760;28;20218;-70
2022/06/09 10:43:32;;;;;;;6.90;6.03;;;;;;;26.57;39.33;94087.84;4965018;28;20215;-70
2022/06/09 10:46:07;;;;;;;7.65;5.45;;;;;;;26.59;38.15;94091.88;5001381;28;20222;-69
2022/06/09 10:57:43;;;;;;;6.50;5.72;;;;;;;26.18;38.50;94075.78;5002145;28;20284;-69
2022/06/09 11:00:17;;;;;;;7.82;5.35;;;;;;;26.75;39.81;94070.25;4985169;28;20348;-64
2022/06/09 11:02:50;;;;;;;5.38;4.88;;;;;;;27.16;38.22;94070.91;4983408;28;20222;-70
2022/06/09 11:05:19;;;;;;;7.80;5.45;;;;;;;27.57;36.98;94067.16;4984031;28;20242;-69
2022/06/09 11:07:55;;;;;;;5.47;5.03;;;;;;;27.90;36.16;94070.97;4988058;28;20203;-74
2022/06/09 11:10:45;;;;;;;8.65;6.32;;;;;;;27.58;35.37;94063.34;4985087;28;20219;-68
2022/06/09 11:13:37;;;;;;;7.82;5.43;;;;;;;27.82;34.55;94060.78;5000598;28;20250;-72
2022/06/09 11:16:19;;;;;;;5.93;4.82;;;;;;;27.95;34.48;94062.81;4990165;28;20263;-63
2022/06/09 11:19:28;;;;;;;5.13;4.32;;;;;;;28.32;33.83;94059.50;4992701;28;20443;-68
2022/06/09 11:22:00;;;;;;;5.20;4.80;;;;;;;28.61;33.49;94053.28;4965285;28;20231;-64
2022/06/09 11:24:37;;;;;;;5.22;4.78;;;;;;;28.13;33.46;94055.91;4968397;28;20223;-68
2022/06/09 11:27:27;;;;;;;7.32;4.45;;;;;;;27.72;34.15;94053.53;4988124;28;20227;-63
2022/06/09 11:30:10;;;;;;;5.53;4.97;;;;;;;28.33;34.33;94049.47;4983898;28;20219;-64
2022/06/09 11:33:19;;;;;;;4.97;4.50;;;;;;;29.05;33.88;94040.59;4966654;28;20309;-64
2022/06/09 11:35:57;;;;;;;8.40;4.60;;;;;;;28.84;33.15;94037.31;4939679;28;20220;-68
2022/06/09 11:38:40;;;;;;;7.10;4.80;;;;;;;28.48;32.86;94033.13;4947181;28;20317;-68
2022/06/09 11:41:15;;;;;;;5.82;5.22;;;;;;;27.96;33.34;94034.72;4948697;28;20228;-61
2022/06/09 11:43:51;;;;;;;5.88;5.20;;;;;;;27.95;34.54;94022.28;4966453;28;20211;-68
2022/06/09 11:46:28;;;;;;;4.90;4.35;;;;;;;28.42;34.18;94018.03;4949050;28;20421;-65
2022/06/09 11:48:58;;;;;;;5.25;4.63;;;;;;;28.90;32.13;94004.50;4938790;28;20238;-65
2022/06/09 11:51:27;;;;;;;6.07;4.38;;;;;;;28.69;32.40;94003.16;4943697;28;20231;-65
2022/06/09 11:53:56;;;;;;;5.25;4.75;;;;;;;27.69;32.88;94006.31;4957996;28;20259;-64
2022/06/09 11:56:40;;;;;;;5.55;4.63;;;;;;;27.56;34.96;94006.94;4962118;28;20231;-66
2022/06/09 11:59:11;;;;;;;5.00;4.45;;;;;;;27.45;34.63;94005.41;4934112;28;20237;-64
2022/06/09 12:01:39;;;;;;;7.95;4.97;;;;;;;27.05;34.95;94004.56;4924763;29;20293;-64
2022/06/09 12:04:09;;;;;;;5.03;4.40;;;;;;;26.83;35.53;94003.06;4947296;28;20217;-66
2022/06/09 12:06:48;;;;;;;4.50;4.07;;;;;;;26.19;35.11;94003.84;4935366;29;20232;-68